sensor_id;sensor_type;location;lat;lon;timestamp;pressure;altitude;pressure_sealevel;temperature;humidity
1736;BME280;865;53.672;10.250;2022-10-15T00:01:19;100250.97;;;12.91;100.00
1736;BME280;865;53.672;10.250;2022-10-15T00:03:46;100255.81;;;13.02;100.00
1736;BME280;865;53.672;10.250;2022-10-15T00:06:15;100248.34;;;12.91;100.00
1736;BME280;865;53.672;10.250;2022-10-15T00:08:42;100244.84;;;12.92;100.00
1736;BME280;865;53.672;10.250;2022-10-15T00:11:12;100244.72;;;12.95;100.00
1736;BME280;865;53.672;10.250;2022-10-15T00:13:39;100245.34;;;13.02;100.00
1736;BME280;865;53.672;10.250;2022-10-15T00:16:12;100247.72;;;13.08;100.00
1736;BME280;865;53.672;10.250;2022-10-15T00:18:39;100247.00;;;13.04;100.00
1736;BME280;865;53.672;10.250;2022-10-15T00:21:11;100245.31;;;13.03;100.00
1736;BME280;865;53.672;10.250;2022-10-15T00:23:37;100246.03;;;13.07;100.00
1736;BME280;865;53.672;10.250;2022-10-15T00:26:06;100247.00;;;13.04;100.00
1736;BME280;865;53.672;10.250;2022-10-15T00:28:33;100242.81;;;13.00;100.00
1736;BME280;865;53.672;10.250;2022-10-15T00:31:05;100248.78;;;13.04;100.00
1736;BME280;865;53.672;10.250;2022-10-15T00:33:32;100245.06;;;13.09;100.00
1736;BME280;865;53.672;10.250;2022-10-15T00:36:08;100235.31;;;13.13;100.00
1736;BME280;865;53.672;10.250;2022-10-15T00:38:35;100244.88;;;13.14;100.00
1736;BME280;865;53.672;10.250;2022-10-15T00:41:03;100240.91;;;13.04;100.00
1736;BME280;865;53.672;10.250;2022-10-15T00:46:06;100240.00;;;13.05;100.00
1736;BME280;865;53.672;10.250;2022-10-15T00:48:39;100240.84;;;13.05;100.00
1736;BME280;865;53.672;10.250;2022-10-15T00:51:07;100237.44;;;13.03;100.00
1736;BME280;865;53.672;10.250;2022-10-15T00:53:33;100240.84;;;13.05;100.00
1736;BME280;865;53.672;10.250;2022-10-15T00:56:00;100232.03;;;13.08;100.00
1736;BME280;865;53.672;10.250;2022-10-15T00:58:29;100235.56;;;13.07;100.00
1736;BME280;865;53.672;10.250;2022-10-15T01:00:57;100239.94;;;13.06;100.00
1736;BME280;865;53.672;10.250;2022-10-15T01:03:24;100232.13;;;13.05;100.00
1736;BME280;865;53.672;10.250;2022-10-15T01:05:51;100231.16;;;13.07;100.00
1736;BME280;865;53.672;10.250;2022-10-15T01:08:18;100231.06;;;13.10;100.00
1736;BME280;865;53.672;10.250;2022-10-15T01:16:30;100224.13;;;13.09;100.00
1736;BME280;865;53.672;10.250;2022-10-15T01:19:05;100230.31;;;13.07;100.00
1736;BME280;865;53.672;10.250;2022-10-15T01:21:37;100226.91;;;13.05;100.00
1736;BME280;865;53.672;10.250;2022-10-15T01:27:21;100222.50;;;13.05;100.00
1736;BME280;865;53.672;10.250;2022-10-15T01:32:59;100223.44;;;13.04;100.00
1736;BME280;865;53.672;10.250;2022-10-15T01:35:44;100219.78;;;13.08;100.00
1736;BME280;865;53.672;10.250;2022-10-15T01:38:22;100223.16;;;13.12;100.00
1736;BME280;865;53.672;10.250;2022-10-15T01:41:14;100226.50;;;13.15;100.00
1736;BME280;865;53.672;10.250;2022-10-15T01:43:56;100228.50;;;13.09;100.00
1736;BME280;865;53.672;10.250;2022-10-15T01:46:36;100224.03;;;13.11;100.00
1736;BME280;865;53.672;10.250;2022-10-15T01:49:04;100224.25;;;13.06;100.00
1736;BME280;865;53.672;10.250;2022-10-15T01:51:34;100214.00;;;13.00;100.00
1736;BME280;865;53.672;10.250;2022-10-15T01:54:04;100224.47;;;13.00;100.00
1736;BME280;865;53.672;10.250;2022-10-15T01:56:34;100224.63;;;12.95;100.00
1736;BME280;865;53.672;10.250;2022-10-15T01:59:02;100221.22;;;12.93;100.00
1736;BME280;865;53.672;10.250;2022-10-15T02:01:30;100228.28;;;12.91;100.00
1736;BME280;865;53.672;10.250;2022-10-15T02:03:56;100228.28;;;12.91;100.00
1736;BME280;865;53.672;10.250;2022-10-15T02:06:33;100229.03;;;12.95;100.00
1736;BME280;865;53.672;10.250;2022-10-15T02:10:10;100228.94;;;12.96;100.00
1736;BME280;865;53.672;10.250;2022-10-15T02:15:00;100220.31;;;12.94;100.00
1736;BME280;865;53.672;10.250;2022-10-15T02:17:34;100223.22;;;12.87;100.00
1736;BME280;865;53.672;10.250;2022-10-15T02:20:13;100213.47;;;12.90;100.00
1736;BME280;865;53.672;10.250;2022-10-15T02:22:54;100217.06;;;12.88;100.00
1736;BME280;865;53.672;10.250;2022-10-15T02:25:24;100212.00;;;12.83;100.00
1736;BME280;865;53.672;10.250;2022-10-15T02:27:53;100211.28;;;12.80;100.00
1736;BME280;865;53.672;10.250;2022-10-15T02:30:20;100211.41;;;12.76;100.00
1736;BME280;865;53.672;10.250;2022-10-15T02:32:50;100205.41;;;12.73;100.00
1736;BME280;865;53.672;10.250;2022-10-15T02:35:17;100204.56;;;12.72;100.00
1736;BME280;865;53.672;10.250;2022-10-15T02:37:47;100199.50;;;12.68;100.00
1736;BME280;865;53.672;10.250;2022-10-15T02:40:15;100204.03;;;12.63;100.00
1736;BME280;865;53.672;10.250;2022-10-15T02:42:41;100197.88;;;12.64;100.00
1736;BME280;865;53.672;10.250;2022-10-15T02:45:08;100198.88;;;12.61;100.00
1736;BME280;865;53.672;10.250;2022-10-15T02:47:34;100195.50;;;12.58;100.00
1736;BME280;865;53.672;10.250;2022-10-15T02:50:02;100200.81;;;12.56;100.00
1736;BME280;865;53.672;10.250;2022-10-15T02:52:29;100202.63;;;12.54;100.00
1736;BME280;865;53.672;10.250;2022-10-15T02:54:55;100204.50;;;12.50;100.00
1736;BME280;865;53.672;10.250;2022-10-15T02:57:21;100202.25;;;12.40;100.00
1736;BME280;865;53.672;10.250;2022-10-15T02:59:48;100204.22;;;12.35;100.00
1736;BME280;865;53.672;10.250;2022-10-15T03:02:14;100207.59;;;12.37;100.00
1736;BME280;865;53.672;10.250;2022-10-15T03:04:44;100202.47;;;12.34;100.00
1736;BME280;865;53.672;10.250;2022-10-15T03:07:10;100206.00;;;12.32;100.00
1736;BME280;865;53.672;10.250;2022-10-15T03:09:37;100202.69;;;12.27;100.00
1736;BME280;865;53.672;10.250;2022-10-15T03:12:03;100212.31;;;12.27;100.00
1736;BME280;865;53.672;10.250;2022-10-15T03:14:30;100208.84;;;12.26;100.00
1736;BME280;865;53.672;10.250;2022-10-15T03:16:56;100211.47;;;12.26;100.00
1736;BME280;865;53.672;10.250;2022-10-15T03:19:23;100205.31;;;12.27;100.00
1736;BME280;865;53.672;10.250;2022-10-15T03:21:49;100203.53;;;12.28;100.00
1736;BME280;865;53.672;10.250;2022-10-15T03:24:16;100208.75;;;12.29;100.00
1736;BME280;865;53.672;10.250;2022-10-15T03:26:42;100211.41;;;12.28;100.00
1736;BME280;865;53.672;10.250;2022-10-15T03:29:08;100206.94;;;12.31;100.00
1736;BME280;865;53.672;10.250;2022-10-15T03:31:34;100210.44;;;12.30;100.00
1736;BME280;865;53.672;10.250;2022-10-15T03:34:01;100198.22;;;12.31;100.00
1736;BME280;865;53.672;10.250;2022-10-15T03:36:27;100205.16;;;12.32;100.00
1736;BME280;865;53.672;10.250;2022-10-15T03:38:53;100195.69;;;12.28;100.00
1736;BME280;865;53.672;10.250;2022-10-15T03:41:20;100207.03;;;12.28;100.00
1736;BME280;865;53.672;10.250;2022-10-15T03:43:46;100208.84;;;12.26;100.00
1736;BME280;865;53.672;10.250;2022-10-15T03:46:12;100209.00;;;12.22;100.00
1736;BME280;865;53.672;10.250;2022-10-15T03:48:39;100209.69;;;12.27;100.00
1736;BME280;865;53.672;10.250;2022-10-15T03:51:05;100205.53;;;12.21;100.00
1736;BME280;865;53.672;10.250;2022-10-15T03:53:31;100212.34;;;12.25;100.00
1736;BME280;865;53.672;10.250;2022-10-15T03:56:04;100220.41;;;12.19;100.00
1736;BME280;865;53.672;10.250;2022-10-15T03:58:31;100209.84;;;12.22;100.00
1736;BME280;865;53.672;10.250;2022-10-15T04:00:57;100211.63;;;12.22;100.00
1736;BME280;865;53.672;10.250;2022-10-15T04:03:24;100214.44;;;12.16;100.00
1736;BME280;865;53.672;10.250;2022-10-15T04:05:51;100213.66;;;12.14;100.00
1736;BME280;865;53.672;10.250;2022-10-15T04:08:20;100211.31;;;12.06;100.00
1736;BME280;865;53.672;10.250;2022-10-15T04:10:46;100217.44;;;12.05;100.00
1736;BME280;865;53.672;10.250;2022-10-15T04:13:13;100219.34;;;12.00;100.00
1736;BME280;865;53.672;10.250;2022-10-15T04:15:39;100222.09;;;11.95;100.00
1736;BME280;865;53.672;10.250;2022-10-15T04:18:06;100210.91;;;11.92;100.00
1736;BME280;865;53.672;10.250;2022-10-15T04:20:32;100219.88;;;11.83;100.00
1736;BME280;865;53.672;10.250;2022-10-15T04:22:59;100218.28;;;11.79;100.00
1736;BME280;865;53.672;10.250;2022-10-15T04:25:25;100219.19;;;11.78;100.00
1736;BME280;865;53.672;10.250;2022-10-15T04:27:51;100220.19;;;11.74;100.00
1736;BME280;865;53.672;10.250;2022-10-15T04:30:18;100221.22;;;11.68;100.00
1736;BME280;865;53.672;10.250;2022-10-15T04:32:44;100215.47;;;11.58;100.00
1736;BME280;865;53.672;10.250;2022-10-15T04:35:11;100214.81;;;11.52;100.00
1736;BME280;865;53.672;10.250;2022-10-15T04:37:37;100223.72;;;11.45;100.00
1736;BME280;865;53.672;10.250;2022-10-15T04:40:04;100226.41;;;11.43;100.00
1736;BME280;865;53.672;10.250;2022-10-15T04:42:31;100226.81;;;11.29;100.00
1736;BME280;865;53.672;10.250;2022-10-15T04:44:57;100233.09;;;11.24;100.00
1736;BME280;865;53.672;10.250;2022-10-15T04:47:23;100231.31;;;11.24;100.00
1736;BME280;865;53.672;10.250;2022-10-15T04:49:50;100235.59;;;11.27;100.00
1736;BME280;865;53.672;10.250;2022-10-15T04:52:16;100239.16;;;11.24;100.00
1736;BME280;865;53.672;10.250;2022-10-15T04:54:43;100242.84;;;11.18;100.00
1736;BME280;865;53.672;10.250;2022-10-15T04:57:09;100251.63;;;11.16;100.00
1736;BME280;865;53.672;10.250;2022-10-15T04:59:36;100245.44;;;11.18;100.00
1736;BME280;865;53.672;10.250;2022-10-15T05:02:02;100244.47;;;11.21;100.00
1736;BME280;865;53.672;10.250;2022-10-15T05:04:29;100242.59;;;11.26;100.00
1736;BME280;865;53.672;10.250;2022-10-15T05:06:55;100239.97;;;11.26;100.00
1736;BME280;865;53.672;10.250;2022-10-15T05:09:21;100242.69;;;11.23;100.00
1736;BME280;865;53.672;10.250;2022-10-15T05:11:48;100245.25;;;11.25;100.00
1736;BME280;865;53.672;10.250;2022-10-15T05:14:14;100255.63;;;11.28;100.00
1736;BME280;865;53.672;10.250;2022-10-15T05:16:40;100252.84;;;11.32;100.00
1736;BME280;865;53.672;10.250;2022-10-15T05:19:07;100252.72;;;11.37;100.00
1736;BME280;865;53.672;10.250;2022-10-15T05:21:34;100254.28;;;11.43;100.00
1736;BME280;865;53.672;10.250;2022-10-15T05:24:01;100246.44;;;11.43;100.00
1736;BME280;865;53.672;10.250;2022-10-15T05:26:28;100253.34;;;11.45;100.00
1736;BME280;865;53.672;10.250;2022-10-15T05:28:56;100261.22;;;11.44;100.00
1736;BME280;865;53.672;10.250;2022-10-15T05:31:25;100252.47;;;11.45;100.00
1736;BME280;865;53.672;10.250;2022-10-15T05:33:53;100255.78;;;11.50;100.00
1736;BME280;865;53.672;10.250;2022-10-15T05:36:22;100254.97;;;11.48;100.00
1736;BME280;865;53.672;10.250;2022-10-15T05:38:51;100257.56;;;11.49;100.00
1736;BME280;865;53.672;10.250;2022-10-15T05:41:18;100264.44;;;11.52;100.00
1736;BME280;865;53.672;10.250;2022-10-15T05:43:46;100261.78;;;11.53;100.00
1736;BME280;865;53.672;10.250;2022-10-15T05:46:13;100265.19;;;11.55;100.00
1736;BME280;865;53.672;10.250;2022-10-15T05:48:39;100267.81;;;11.55;100.00
1736;BME280;865;53.672;10.250;2022-10-15T05:51:09;100266.13;;;11.53;100.00
1736;BME280;865;53.672;10.250;2022-10-15T05:53:36;100274.72;;;11.56;100.00
1736;BME280;865;53.672;10.250;2022-10-15T05:56:03;100273.16;;;11.51;100.00
1736;BME280;865;53.672;10.250;2022-10-15T05:58:32;100278.19;;;11.57;100.00
1736;BME280;865;53.672;10.250;2022-10-15T06:01:04;100271.16;;;11.59;100.00
1736;BME280;865;53.672;10.250;2022-10-15T06:03:32;100277.97;;;11.64;100.00
1736;BME280;865;53.672;10.250;2022-10-15T06:05:59;100280.66;;;11.63;100.00
1736;BME280;865;53.672;10.250;2022-10-15T06:08:27;100281.53;;;11.62;100.00
1736;BME280;865;53.672;10.250;2022-10-15T06:10:53;100281.53;;;11.62;100.00
1736;BME280;865;53.672;10.250;2022-10-15T06:13:21;100282.53;;;11.58;100.00
1736;BME280;865;53.672;10.250;2022-10-15T06:15:48;100283.47;;;11.55;100.00
1736;BME280;865;53.672;10.250;2022-10-15T06:18:14;100282.53;;;11.58;100.00
1736;BME280;865;53.672;10.250;2022-10-15T06:20:42;100292.91;;;11.59;100.00
1736;BME280;865;53.672;10.250;2022-10-15T06:23:10;100299.00;;;11.60;100.00
1736;BME280;865;53.672;10.250;2022-10-15T06:25:36;100298.25;;;11.56;100.00
1736;BME280;865;53.672;10.250;2022-10-15T06:28:04;100292.13;;;11.57;100.00
1736;BME280;865;53.672;10.250;2022-10-15T06:30:31;100292.25;;;11.53;100.00
1736;BME280;865;53.672;10.250;2022-10-15T06:32:58;100294.88;;;11.53;100.00
1736;BME280;865;53.672;10.250;2022-10-15T06:35:25;100301.78;;;11.54;100.00
1736;BME280;865;53.672;10.250;2022-10-15T06:37:52;100308.66;;;11.58;100.00
1736;BME280;865;53.672;10.250;2022-10-15T06:40:18;100311.00;;;11.66;100.00
1736;BME280;865;53.672;10.250;2022-10-15T06:42:45;100313.69;;;11.64;100.00
1736;BME280;865;53.672;10.250;2022-10-15T06:45:11;100312.13;;;11.58;100.00
1736;BME280;865;53.672;10.250;2022-10-15T06:47:42;100304.16;;;11.63;100.00
1736;BME280;865;53.672;10.250;2022-10-15T06:50:08;100305.69;;;11.69;100.00
1736;BME280;865;53.672;10.250;2022-10-15T06:52:35;100300.63;;;11.64;100.00
1736;BME280;865;53.672;10.250;2022-10-15T06:55:03;100307.25;;;11.74;100.00
1736;BME280;865;53.672;10.250;2022-10-15T06:57:30;100301.16;;;11.75;100.00
1736;BME280;865;53.672;10.250;2022-10-15T06:59:56;100306.47;;;11.72;100.00
1736;BME280;865;53.672;10.250;2022-10-15T07:02:22;100304.53;;;11.79;100.00
1736;BME280;865;53.672;10.250;2022-10-15T07:04:50;100305.19;;;11.85;100.00
1736;BME280;865;53.672;10.250;2022-10-15T07:07:16;100299.75;;;11.93;100.00
1736;BME280;865;53.672;10.250;2022-10-15T07:09:43;100305.00;;;11.92;100.00
1736;BME280;865;53.672;10.250;2022-10-15T07:12:11;100308.56;;;11.89;100.00
1736;BME280;865;53.672;10.250;2022-10-15T07:14:38;100305.84;;;11.92;100.00
1736;BME280;865;53.672;10.250;2022-10-15T07:17:07;100312.94;;;11.89;100.00
1736;BME280;865;53.672;10.250;2022-10-15T07:19:34;100313.38;;;12.01;100.00
1736;BME280;865;53.672;10.250;2022-10-15T07:22:00;100316.59;;;12.11;100.00
1736;BME280;865;53.672;10.250;2022-10-15T07:24:26;100314.66;;;12.16;100.00
1736;BME280;865;53.672;10.250;2022-10-15T07:26:53;100317.97;;;12.21;100.00
1736;BME280;865;53.672;10.250;2022-10-15T07:29:19;100315.72;;;12.11;100.00
1736;BME280;865;53.672;10.250;2022-10-15T07:31:45;100329.84;;;12.05;100.00
1736;BME280;865;53.672;10.250;2022-10-15T07:34:12;100320.19;;;12.07;100.00
1736;BME280;865;53.672;10.250;2022-10-15T07:36:38;100311.28;;;12.13;100.00
1736;BME280;865;53.672;10.250;2022-10-15T07:39:05;100318.59;;;12.03;100.00
1736;BME280;865;53.672;10.250;2022-10-15T07:41:31;100317.09;;;11.96;100.00
1736;BME280;865;53.672;10.250;2022-10-15T07:43:58;100320.66;;;11.93;100.00
1736;BME280;865;53.672;10.250;2022-10-15T07:46:24;100316.06;;;12.00;100.00
1736;BME280;865;53.672;10.250;2022-10-15T07:48:50;100316.41;;;11.89;100.00
1736;BME280;865;53.672;10.250;2022-10-15T07:51:17;100320.78;;;11.89;100.00
1736;BME280;865;53.672;10.250;2022-10-15T07:53:43;100324.22;;;11.91;100.00
1736;BME280;865;53.672;10.250;2022-10-15T07:56:12;100317.16;;;11.93;100.00
1736;BME280;865;53.672;10.250;2022-10-15T07:58:38;100312.72;;;11.96;100.00
1736;BME280;865;53.672;10.250;2022-10-15T08:01:06;100315.31;;;11.96;100.00
1736;BME280;865;53.672;10.250;2022-10-15T08:03:33;100324.00;;;11.97;100.00
1736;BME280;865;53.672;10.250;2022-10-15T08:06:01;100319.59;;;11.99;100.00
1736;BME280;865;53.672;10.250;2022-10-15T08:08:28;100309.91;;;12.02;100.00
1736;BME280;865;53.672;10.250;2022-10-15T08:10:56;100306.22;;;12.08;100.00
1736;BME280;865;53.672;10.250;2022-10-15T08:13:23;100308.56;;;12.16;100.00
1736;BME280;865;53.672;10.250;2022-10-15T08:15:49;100305.81;;;12.20;100.00
1736;BME280;865;53.672;10.250;2022-10-15T08:18:16;100305.84;;;12.19;100.00
1736;BME280;865;53.672;10.250;2022-10-15T08:20:42;100309.03;;;12.28;100.00
1736;BME280;865;53.672;10.250;2022-10-15T08:23:14;100312.97;;;12.40;100.00
1736;BME280;865;53.672;10.250;2022-10-15T08:25:40;100313.34;;;12.29;100.00
1736;BME280;865;53.672;10.250;2022-10-15T08:28:07;100315.31;;;12.23;100.00
1736;BME280;865;53.672;10.250;2022-10-15T08:30:37;100317.72;;;12.29;100.00
1736;BME280;865;53.672;10.250;2022-10-15T08:33:03;100318.72;;;12.25;100.00
1736;BME280;865;53.672;10.250;2022-10-15T08:35:30;100322.56;;;12.15;100.00
1736;BME280;865;53.672;10.250;2022-10-15T08:38:01;100321.75;;;12.13;100.00
1736;BME280;865;53.672;10.250;2022-10-15T08:40:27;100322.50;;;12.16;100.00
1736;BME280;865;53.672;10.250;2022-10-15T08:42:55;100313.81;;;12.16;100.00
1736;BME280;865;53.672;10.250;2022-10-15T08:45:40;100315.91;;;12.31;100.00
1736;BME280;865;53.672;10.250;2022-10-15T08:48:12;100317.25;;;12.43;100.00
1736;BME280;865;53.672;10.250;2022-10-15T08:50:42;100319.53;;;12.52;100.00
1736;BME280;865;53.672;10.250;2022-10-15T08:53:21;100320.56;;;12.48;100.00
1736;BME280;865;53.672;10.250;2022-10-15T08:55:50;100319.31;;;12.58;100.00
1736;BME280;865;53.672;10.250;2022-10-15T08:58:30;100321.31;;;12.51;100.00
1736;BME280;865;53.672;10.250;2022-10-15T09:01:17;100326.50;;;12.53;100.00
1736;BME280;865;53.672;10.250;2022-10-15T09:03:50;100332.41;;;12.58;100.00
1736;BME280;865;53.672;10.250;2022-10-15T09:06:30;100327.09;;;12.61;100.00
1736;BME280;865;53.672;10.250;2022-10-15T09:09:19;100329.53;;;12.66;100.00
1736;BME280;865;53.672;10.250;2022-10-15T09:14:38;100326.44;;;12.80;100.00
1736;BME280;865;53.672;10.250;2022-10-15T09:19:47;100326.59;;;12.75;100.00
1736;BME280;865;53.672;10.250;2022-10-15T09:22:17;100329.81;;;12.83;100.00
1736;BME280;865;53.672;10.250;2022-10-15T09:24:44;100333.34;;;13.06;100.00
1736;BME280;865;53.672;10.250;2022-10-15T09:33:01;100324.25;;;13.16;100.00
1736;BME280;865;53.672;10.250;2022-10-15T09:35:42;100322.31;;;13.21;100.00
1736;BME280;865;53.672;10.250;2022-10-15T09:41:32;100319.09;;;13.38;100.00
1736;BME280;865;53.672;10.250;2022-10-15T09:44:01;100314.78;;;13.59;100.00
1736;BME280;865;53.672;10.250;2022-10-15T09:46:32;100308.44;;;13.64;100.00
1736;BME280;865;53.672;10.250;2022-10-15T09:49:06;100299.13;;;13.79;100.00
1736;BME280;865;53.672;10.250;2022-10-15T09:51:39;100305.56;;;13.71;100.00
1736;BME280;865;53.672;10.250;2022-10-15T09:56:43;100303.63;;;13.76;100.00
1736;BME280;865;53.672;10.250;2022-10-15T09:59:16;100303.69;;;13.96;100.00
1736;BME280;865;53.672;10.250;2022-10-15T10:02:02;100311.06;;;14.08;100.00
1736;BME280;865;53.672;10.250;2022-10-15T10:04:32;100311.06;;;14.08;100.00
1736;BME280;865;53.672;10.250;2022-10-15T10:07:04;100310.00;;;14.12;100.00
1736;BME280;865;53.672;10.250;2022-10-15T10:09:53;100313.50;;;14.33;100.00
1736;BME280;865;53.672;10.250;2022-10-15T10:12:29;100313.25;;;14.19;100.00
1736;BME280;865;53.672;10.250;2022-10-15T10:14:59;100307.28;;;14.36;100.00
1736;BME280;865;53.672;10.250;2022-10-15T10:17:28;100301.75;;;14.01;100.00
1736;BME280;865;53.672;10.250;2022-10-15T10:22:54;100305.63;;;13.91;100.00
1736;BME280;865;53.672;10.250;2022-10-15T10:25:37;100307.38;;;13.92;100.00
1736;BME280;865;53.672;10.250;2022-10-15T10:30:36;100307.28;;;13.94;100.00
1736;BME280;865;53.672;10.250;2022-10-15T10:33:04;100307.84;;;14.02;100.00
1736;BME280;865;53.672;10.250;2022-10-15T10:35:51;100297.81;;;14.11;100.00
1736;BME280;865;53.672;10.250;2022-10-15T10:38:21;100295.78;;;14.18;100.00
1736;BME280;865;53.672;10.250;2022-10-15T10:40:50;100301.66;;;14.25;100.00
1736;BME280;865;53.672;10.250;2022-10-15T10:43:22;100296.56;;;14.20;100.00
1736;BME280;865;53.672;10.250;2022-10-15T10:48:27;100291.38;;;14.39;100.00
1736;BME280;865;53.672;10.250;2022-10-15T10:53:59;100290.75;;;14.34;100.00
1736;BME280;865;53.672;10.250;2022-10-15T10:56:43;100286.69;;;14.47;100.00
1736;BME280;865;53.672;10.250;2022-10-15T11:01:54;100276.47;;;14.62;100.00
1736;BME280;865;53.672;10.250;2022-10-15T11:04:28;100285.75;;;14.69;100.00
1736;BME280;865;53.672;10.250;2022-10-15T11:07:09;100280.66;;;14.66;100.00
1736;BME280;865;53.672;10.250;2022-10-15T11:10:06;100282.59;;;14.81;100.00
1736;BME280;865;53.672;10.250;2022-10-15T11:15:38;100283.69;;;14.96;100.00
1736;BME280;865;53.672;10.250;2022-10-15T11:23:49;100282.69;;;14.98;100.00
1736;BME280;865;53.672;10.250;2022-10-15T11:29:39;100276.44;;;15.01;100.00
1736;BME280;865;53.672;10.250;2022-10-15T11:41:08;100275.88;;;15.51;100.00
1736;BME280;865;53.672;10.250;2022-10-15T11:56:18;100254.53;;;15.76;100.00
1736;BME280;865;53.672;10.250;2022-10-15T11:59:33;100248.38;;;15.94;100.00
1736;BME280;865;53.672;10.250;2022-10-15T12:02:00;100247.81;;;16.05;100.00
1736;BME280;865;53.672;10.250;2022-10-15T12:04:47;100249.13;;;16.14;100.00
1736;BME280;865;53.672;10.250;2022-10-15T12:07:19;100250.81;;;16.15;99.95
1736;BME280;865;53.672;10.250;2022-10-15T12:09:50;100253.31;;;16.01;99.23
1736;BME280;865;53.672;10.250;2022-10-15T12:12:26;100239.69;;;15.92;100.00
1736;BME280;865;53.672;10.250;2022-10-15T12:15:19;100240.22;;;15.82;100.00
1736;BME280;865;53.672;10.250;2022-10-15T12:18:07;100236.13;;;15.93;100.00
1736;BME280;865;53.672;10.250;2022-10-15T12:20:35;100235.44;;;16.07;100.00
1736;BME280;865;53.672;10.250;2022-10-15T12:23:02;100229.78;;;16.15;99.11
1736;BME280;865;53.672;10.250;2022-10-15T12:30:34;100210.81;;;15.91;99.22
1736;BME280;865;53.672;10.250;2022-10-15T12:33:28;100217.56;;;16.14;100.00
1736;BME280;865;53.672;10.250;2022-10-15T12:36:03;100210.81;;;16.26;99.43
1736;BME280;865;53.672;10.250;2022-10-15T12:38:41;100207.19;;;16.28;100.00
1736;BME280;865;53.672;10.250;2022-10-15T12:41:16;100206.53;;;16.40;100.00
1736;BME280;865;53.672;10.250;2022-10-15T12:44:03;100197.97;;;16.20;100.00
1736;BME280;865;53.672;10.250;2022-10-15T12:46:38;100205.19;;;16.16;100.00
1736;BME280;865;53.672;10.250;2022-10-15T12:52:01;100207.19;;;16.11;100.00
1736;BME280;865;53.672;10.250;2022-10-15T12:54:50;100199.41;;;15.92;100.00
1736;BME280;865;53.672;10.250;2022-10-15T12:59:57;100198.44;;;16.10;99.48
1736;BME280;865;53.672;10.250;2022-10-15T13:02:39;100189.72;;;16.10;98.42
1736;BME280;865;53.672;10.250;2022-10-15T13:05:23;100185.13;;;16.13;97.16
1736;BME280;865;53.672;10.250;2022-10-15T13:07:51;100196.66;;;16.28;99.11
1736;BME280;865;53.672;10.250;2022-10-15T13:10:19;100193.34;;;16.07;95.42
1736;BME280;865;53.672;10.250;2022-10-15T13:12:55;100190.41;;;16.13;96.32
1736;BME280;865;53.672;10.250;2022-10-15T13:15:24;100188.66;;;16.30;94.79
1736;BME280;865;53.672;10.250;2022-10-15T13:17:53;100197.78;;;16.40;95.42
1736;BME280;865;53.672;10.250;2022-10-15T13:20:39;100201.06;;;16.61;93.41
1736;BME280;865;53.672;10.250;2022-10-15T13:23:16;100205.97;;;16.51;91.56
1736;BME280;865;53.672;10.250;2022-10-15T13:28:45;100207.34;;;16.25;94.22
1736;BME280;865;53.672;10.250;2022-10-15T13:31:24;100202.09;;;16.08;94.57
1736;BME280;865;53.672;10.250;2022-10-15T13:34:29;100200.09;;;16.13;94.18
1736;BME280;865;53.672;10.250;2022-10-15T13:36:59;100199.94;;;15.99;95.93
1736;BME280;865;53.672;10.250;2022-10-15T13:39:29;100207.81;;;15.99;95.40
1736;BME280;865;53.672;10.250;2022-10-15T13:42:15;100204.25;;;16.00;95.56
1736;BME280;865;53.672;10.250;2022-10-15T13:44:43;100202.88;;;15.92;94.81
1736;BME280;865;53.672;10.250;2022-10-15T13:50:22;100204.97;;;15.86;94.50
1736;BME280;865;53.672;10.250;2022-10-15T13:52:54;100201.06;;;15.76;95.04
1736;BME280;865;53.672;10.250;2022-10-15T13:55:31;100199.72;;;15.86;96.48
1736;BME280;865;53.672;10.250;2022-10-15T13:58:02;100189.25;;;15.84;96.08
1736;BME280;865;53.672;10.250;2022-10-15T14:00:32;100180.34;;;15.87;96.18
1736;BME280;865;53.672;10.250;2022-10-15T14:05:43;100179.41;;;15.88;96.39
1736;BME280;865;53.672;10.250;2022-10-15T14:08:19;100165.34;;;15.89;96.78
1736;BME280;865;53.672;10.250;2022-10-15T14:10:47;100155.88;;;16.02;96.54
1736;BME280;865;53.672;10.250;2022-10-15T14:13:14;100161.31;;;15.99;95.84
1736;BME280;865;53.672;10.250;2022-10-15T14:18:29;100155.59;;;15.91;97.04
1736;BME280;865;53.672;10.250;2022-10-15T14:20:57;100154.88;;;16.05;95.86
1736;BME280;865;53.672;10.250;2022-10-15T14:23:24;100160.25;;;16.03;97.64
1736;BME280;865;53.672;10.250;2022-10-15T14:26:00;100152.63;;;15.97;96.56
1736;BME280;865;53.672;10.250;2022-10-15T14:28:29;100143.16;;;15.94;96.85
1736;BME280;865;53.672;10.250;2022-10-15T14:30:57;100151.47;;;16.03;97.27
1736;BME280;865;53.672;10.250;2022-10-15T14:36:11;100146.31;;;16.01;99.12
1736;BME280;865;53.672;10.250;2022-10-15T14:38:39;100152.56;;;15.99;98.01
1736;BME280;865;53.672;10.250;2022-10-15T14:41:21;100148.63;;;15.90;98.90
1736;BME280;865;53.672;10.250;2022-10-15T14:44:04;100157.53;;;15.87;99.23
1736;BME280;865;53.672;10.250;2022-10-15T14:46:40;100154.44;;;15.79;99.46
1736;BME280;865;53.672;10.250;2022-10-15T14:49:32;100152.69;;;15.61;100.00
1736;BME280;865;53.672;10.250;2022-10-15T14:52:03;100148.38;;;15.60;100.00
1736;BME280;865;53.672;10.250;2022-10-15T14:54:34;100147.84;;;15.53;100.00
1736;BME280;865;53.672;10.250;2022-10-15T14:57:02;100144.66;;;15.64;100.00
1736;BME280;865;53.672;10.250;2022-10-15T14:59:35;100135.28;;;15.77;100.00
1736;BME280;865;53.672;10.250;2022-10-15T15:02:04;100138.81;;;15.76;100.00
1736;BME280;865;53.672;10.250;2022-10-15T15:04:38;100129.59;;;15.67;100.00
1736;BME280;865;53.672;10.250;2022-10-15T15:07:14;100135.75;;;15.68;100.00